sensor_id;sensor_type;location;lat;lon;timestamp;P1;durP1;ratioP1;P2;durP2;ratioP2
22543;SDS011;11438;52.044;8.716;2023-05-07T00:00:16;11.73;;;9.35;;
22543;SDS011;11438;52.044;8.716;2023-05-07T00:02:43;13.10;;;9.52;;
22543;SDS011;11438;52.044;8.716;2023-05-07T00:05:10;11.98;;;9.23;;
22543;SDS011;11438;52.044;8.716;2023-05-07T00:07:35;12.43;;;9.40;;
22543;SDS011;11438;52.044;8.716;2023-05-07T00:10:01;13.35;;;9.63;;
22543;SDS011;11438;52.044;8.716;2023-05-07T00:12:27;13.25;;;9.48;;
22543;SDS011;11438;52.044;8.716;2023-05-07T00:14:56;13.95;;;9.38;;
22543;SDS011;11438;52.044;8.716;2023-05-07T00:17:22;14.70;;;10.00;;
22543;SDS011;11438;52.044;8.716;2023-05-07T00:19:47;15.52;;;10.00;;
22543;SDS011;11438;52.044;8.716;2023-05-07T00:22:13;15.88;;;9.88;;
22543;SDS011;11438;52.044;8.716;2023-05-07T00:24:38;14.07;;;9.85;;
22543;SDS011;11438;52.044;8.716;2023-05-07T00:27:03;14.07;;;10.10;;
22543;SDS011;11438;52.044;8.716;2023-05-07T00:29:29;14.40;;;9.88;;
22543;SDS011;11438;52.044;8.716;2023-05-07T00:31:54;12.90;;;10.15;;
22543;SDS011;11438;52.044;8.716;2023-05-07T00:34:20;14.27;;;10.23;;
22543;SDS011;11438;52.044;8.716;2023-05-07T00:36:45;12.65;;;9.80;;
22543;SDS011;11438;52.044;8.716;2023-05-07T00:39:11;15.05;;;10.77;;
22543;SDS011;11438;52.044;8.716;2023-05-07T00:41:36;16.58;;;10.30;;
22543;SDS011;11438;52.044;8.716;2023-05-07T00:44:03;15.32;;;10.27;;
22543;SDS011;11438;52.044;8.716;2023-05-07T00:46:29;15.10;;;10.43;;
22543;SDS011;11438;52.044;8.716;2023-05-07T00:48:56;14.93;;;10.32;;
22543;SDS011;11438;52.044;8.716;2023-05-07T00:51:23;13.85;;;9.70;;
22543;SDS011;11438;52.044;8.716;2023-05-07T00:53:50;14.45;;;10.45;;
22543;SDS011;11438;52.044;8.716;2023-05-07T00:56:15;17.35;;;11.60;;
22543;SDS011;11438;52.044;8.716;2023-05-07T00:58:41;14.20;;;10.27;;
22543;SDS011;11438;52.044;8.716;2023-05-07T01:01:07;14.65;;;10.60;;
22543;SDS011;11438;52.044;8.716;2023-05-07T01:03:32;13.75;;;10.77;;
22543;SDS011;11438;52.044;8.716;2023-05-07T01:05:58;15.38;;;10.25;;
22543;SDS011;11438;52.044;8.716;2023-05-07T01:08:25;15.63;;;10.40;;
22543;SDS011;11438;52.044;8.716;2023-05-07T01:10:53;15.90;;;10.85;;
22543;SDS011;11438;52.044;8.716;2023-05-07T01:13:19;15.93;;;10.93;;
22543;SDS011;11438;52.044;8.716;2023-05-07T01:15:45;13.75;;;10.48;;
22543;SDS011;11438;52.044;8.716;2023-05-07T01:18:11;14.55;;;11.00;;
22543;SDS011;11438;52.044;8.716;2023-05-07T01:20:37;15.52;;;10.88;;
22543;SDS011;11438;52.044;8.716;2023-05-07T01:23:02;16.45;;;10.45;;
22543;SDS011;11438;52.044;8.716;2023-05-07T01:25:28;15.32;;;9.27;;
22543;SDS011;11438;52.044;8.716;2023-05-07T01:27:55;13.65;;;9.98;;
22543;SDS011;11438;52.044;8.716;2023-05-07T01:30:21;14.40;;;10.38;;
22543;SDS011;11438;52.044;8.716;2023-05-07T01:32:57;15.70;;;10.30;;
22543;SDS011;11438;52.044;8.716;2023-05-07T01:35:30;14.18;;;10.60;;
22543;SDS011;11438;52.044;8.716;2023-05-07T01:38:00;15.55;;;11.52;;
22543;SDS011;11438;52.044;8.716;2023-05-07T01:40:29;17.15;;;11.32;;
22543;SDS011;11438;52.044;8.716;2023-05-07T01:42:55;15.57;;;11.07;;
22543;SDS011;11438;52.044;8.716;2023-05-07T01:45:21;15.52;;;10.98;;
22543;SDS011;11438;52.044;8.716;2023-05-07T01:47:46;17.42;;;10.75;;
22543;SDS011;11438;52.044;8.716;2023-05-07T01:50:12;14.25;;;10.50;;
22543;SDS011;11438;52.044;8.716;2023-05-07T01:52:40;15.15;;;10.75;;
22543;SDS011;11438;52.044;8.716;2023-05-07T01:55:06;15.90;;;10.85;;
22543;SDS011;11438;52.044;8.716;2023-05-07T01:57:32;15.27;;;11.23;;
22543;SDS011;11438;52.044;8.716;2023-05-07T01:59:58;16.05;;;10.68;;
22543;SDS011;11438;52.044;8.716;2023-05-07T02:02:23;15.27;;;10.10;;
22543;SDS011;11438;52.044;8.716;2023-05-07T02:04:49;16.05;;;10.93;;
22543;SDS011;11438;52.044;8.716;2023-05-07T02:07:14;13.15;;;10.65;;
22543;SDS011;11438;52.044;8.716;2023-05-07T02:09:40;18.10;;;11.77;;
22543;SDS011;11438;52.044;8.716;2023-05-07T02:12:05;16.85;;;11.32;;
22543;SDS011;11438;52.044;8.716;2023-05-07T02:14:31;17.40;;;12.25;;
22543;SDS011;11438;52.044;8.716;2023-05-07T02:16:56;15.35;;;11.57;;
22543;SDS011;11438;52.044;8.716;2023-05-07T02:19:22;17.40;;;11.88;;
22543;SDS011;11438;52.044;8.716;2023-05-07T02:21:47;16.88;;;11.10;;
22543;SDS011;11438;52.044;8.716;2023-05-07T02:24:14;18.67;;;11.23;;
22543;SDS011;11438;52.044;8.716;2023-05-07T02:26:40;18.20;;;11.63;;
22543;SDS011;11438;52.044;8.716;2023-05-07T02:29:06;15.57;;;11.15;;
22543;SDS011;11438;52.044;8.716;2023-05-07T02:31:31;16.88;;;11.30;;
22543;SDS011;11438;52.044;8.716;2023-05-07T02:33:58;16.17;;;11.35;;
22543;SDS011;11438;52.044;8.716;2023-05-07T02:36:24;20.92;;;12.30;;
22543;SDS011;11438;52.044;8.716;2023-05-07T02:38:51;18.50;;;11.65;;
22543;SDS011;11438;52.044;8.716;2023-05-07T02:41:17;16.70;;;11.52;;
22543;SDS011;11438;52.044;8.716;2023-05-07T02:43:42;17.15;;;11.82;;
22543;SDS011;11438;52.044;8.716;2023-05-07T02:46:08;15.23;;;10.45;;
22543;SDS011;11438;52.044;8.716;2023-05-07T02:48:33;16.42;;;11.23;;
22543;SDS011;11438;52.044;8.716;2023-05-07T02:51:00;17.75;;;11.93;;
22543;SDS011;11438;52.044;8.716;2023-05-07T02:53:26;16.23;;;11.40;;
22543;SDS011;11438;52.044;8.716;2023-05-07T02:56:00;16.10;;;11.45;;
22543;SDS011;11438;52.044;8.716;2023-05-07T02:58:26;17.20;;;11.20;;
22543;SDS011;11438;52.044;8.716;2023-05-07T03:00:52;16.80;;;11.52;;
22543;SDS011;11438;52.044;8.716;2023-05-07T03:03:19;14.30;;;10.82;;
22543;SDS011;11438;52.044;8.716;2023-05-07T03:05:45;16.75;;;11.60;;
22543;SDS011;11438;52.044;8.716;2023-05-07T03:08:11;16.10;;;10.10;;
22543;SDS011;11438;52.044;8.716;2023-05-07T03:10:37;18.33;;;12.10;;
22543;SDS011;11438;52.044;8.716;2023-05-07T03:13:02;15.50;;;11.13;;
22543;SDS011;11438;52.044;8.716;2023-05-07T03:15:28;17.60;;;12.15;;
22543;SDS011;11438;52.044;8.716;2023-05-07T03:17:54;16.52;;;11.80;;
22543;SDS011;11438;52.044;8.716;2023-05-07T03:20:20;16.98;;;12.00;;
22543;SDS011;11438;52.044;8.716;2023-05-07T03:22:45;18.15;;;11.95;;
22543;SDS011;11438;52.044;8.716;2023-05-07T03:25:11;15.48;;;11.02;;
22543;SDS011;11438;52.044;8.716;2023-05-07T03:27:37;16.77;;;12.05;;
22543;SDS011;11438;52.044;8.716;2023-05-07T03:30:03;16.05;;;10.63;;
22543;SDS011;11438;52.044;8.716;2023-05-07T03:32:29;16.52;;;12.05;;
22543;SDS011;11438;52.044;8.716;2023-05-07T03:34:54;17.50;;;11.55;;
22543;SDS011;11438;52.044;8.716;2023-05-07T03:37:20;18.90;;;12.55;;
22543;SDS011;11438;52.044;8.716;2023-05-07T03:39:46;18.30;;;12.18;;
22543;SDS011;11438;52.044;8.716;2023-05-07T03:42:12;18.10;;;11.98;;
22543;SDS011;11438;52.044;8.716;2023-05-07T03:44:37;16.75;;;11.60;;
22543;SDS011;11438;52.044;8.716;2023-05-07T03:47:03;17.15;;;11.93;;
22543;SDS011;11438;52.044;8.716;2023-05-07T03:49:29;17.20;;;12.55;;
22543;SDS011;11438;52.044;8.716;2023-05-07T03:51:55;16.58;;;12.00;;
22543;SDS011;11438;52.044;8.716;2023-05-07T03:54:20;16.55;;;12.18;;
22543;SDS011;11438;52.044;8.716;2023-05-07T03:56:46;18.02;;;12.63;;
22543;SDS011;11438;52.044;8.716;2023-05-07T03:59:12;16.88;;;12.30;;
22543;SDS011;11438;52.044;8.716;2023-05-07T04:01:38;18.30;;;13.00;;
22543;SDS011;11438;52.044;8.716;2023-05-07T04:04:04;19.45;;;12.32;;
22543;SDS011;11438;52.044;8.716;2023-05-07T04:06:30;17.17;;;12.85;;
22543;SDS011;11438;52.044;8.716;2023-05-07T04:08:55;17.70;;;13.05;;
22543;SDS011;11438;52.044;8.716;2023-05-07T04:11:21;19.42;;;13.18;;
22543;SDS011;11438;52.044;8.716;2023-05-07T04:13:47;18.08;;;12.02;;
22543;SDS011;11438;52.044;8.716;2023-05-07T04:16:12;19.08;;;13.90;;
22543;SDS011;11438;52.044;8.716;2023-05-07T04:18:38;17.52;;;12.73;;
22543;SDS011;11438;52.044;8.716;2023-05-07T04:21:03;18.70;;;13.10;;
22543;SDS011;11438;52.044;8.716;2023-05-07T04:23:29;19.67;;;14.32;;
22543;SDS011;11438;52.044;8.716;2023-05-07T04:25:55;17.65;;;12.50;;
22543;SDS011;11438;52.044;8.716;2023-05-07T04:28:20;19.48;;;12.65;;
22543;SDS011;11438;52.044;8.716;2023-05-07T04:30:46;20.63;;;13.35;;
22543;SDS011;11438;52.044;8.716;2023-05-07T04:33:13;18.92;;;13.35;;
22543;SDS011;11438;52.044;8.716;2023-05-07T04:35:40;16.23;;;12.60;;
22543;SDS011;11438;52.044;8.716;2023-05-07T04:38:06;19.08;;;13.15;;
22543;SDS011;11438;52.044;8.716;2023-05-07T04:40:31;17.05;;;12.68;;
22543;SDS011;11438;52.044;8.716;2023-05-07T04:42:57;23.33;;;14.57;;
22543;SDS011;11438;52.044;8.716;2023-05-07T04:45:22;19.30;;;13.70;;
22543;SDS011;11438;52.044;8.716;2023-05-07T04:47:48;20.15;;;13.13;;
22543;SDS011;11438;52.044;8.716;2023-05-07T04:50:13;17.42;;;12.40;;
22543;SDS011;11438;52.044;8.716;2023-05-07T04:52:39;18.05;;;13.02;;
22543;SDS011;11438;52.044;8.716;2023-05-07T04:55:04;20.30;;;13.25;;
22543;SDS011;11438;52.044;8.716;2023-05-07T04:57:30;18.50;;;13.10;;
22543;SDS011;11438;52.044;8.716;2023-05-07T04:59:55;19.08;;;13.07;;
22543;SDS011;11438;52.044;8.716;2023-05-07T05:02:22;18.98;;;12.98;;
22543;SDS011;11438;52.044;8.716;2023-05-07T05:04:47;22.02;;;14.13;;
22543;SDS011;11438;52.044;8.716;2023-05-07T05:07:12;18.92;;;13.25;;
22543;SDS011;11438;52.044;8.716;2023-05-07T05:09:38;19.52;;;13.55;;
22543;SDS011;11438;52.044;8.716;2023-05-07T05:12:03;19.95;;;14.10;;
22543;SDS011;11438;52.044;8.716;2023-05-07T05:14:32;20.13;;;13.40;;
22543;SDS011;11438;52.044;8.716;2023-05-07T05:16:57;19.70;;;13.52;;
22543;SDS011;11438;52.044;8.716;2023-05-07T05:19:23;17.35;;;12.88;;
22543;SDS011;11438;52.044;8.716;2023-05-07T05:21:48;16.65;;;12.45;;
22543;SDS011;11438;52.044;8.716;2023-05-07T05:24:13;17.27;;;12.25;;
22543;SDS011;11438;52.044;8.716;2023-05-07T05:26:40;19.80;;;13.02;;
22543;SDS011;11438;52.044;8.716;2023-05-07T05:29:05;16.92;;;12.23;;
22543;SDS011;11438;52.044;8.716;2023-05-07T05:31:31;18.48;;;12.57;;
22543;SDS011;11438;52.044;8.716;2023-05-07T05:33:56;17.92;;;12.52;;
22543;SDS011;11438;52.044;8.716;2023-05-07T05:36:22;19.92;;;13.73;;
22543;SDS011;11438;52.044;8.716;2023-05-07T05:38:47;18.58;;;13.32;;
22543;SDS011;11438;52.044;8.716;2023-05-07T05:41:13;19.90;;;13.65;;
22543;SDS011;11438;52.044;8.716;2023-05-07T05:43:38;19.73;;;13.43;;
22543;SDS011;11438;52.044;8.716;2023-05-07T05:46:04;20.73;;;13.90;;
22543;SDS011;11438;52.044;8.716;2023-05-07T05:48:30;18.58;;;12.48;;
22543;SDS011;11438;52.044;8.716;2023-05-07T05:50:55;17.05;;;11.85;;
22543;SDS011;11438;52.044;8.716;2023-05-07T05:53:21;19.83;;;13.38;;
22543;SDS011;11438;52.044;8.716;2023-05-07T05:55:46;18.63;;;12.52;;
22543;SDS011;11438;52.044;8.716;2023-05-07T05:58:12;17.80;;;12.38;;
22543;SDS011;11438;52.044;8.716;2023-05-07T06:00:37;19.77;;;13.30;;
22543;SDS011;11438;52.044;8.716;2023-05-07T06:03:03;19.23;;;13.45;;
22543;SDS011;11438;52.044;8.716;2023-05-07T06:05:28;18.45;;;12.38;;
22543;SDS011;11438;52.044;8.716;2023-05-07T06:07:54;17.45;;;12.50;;
22543;SDS011;11438;52.044;8.716;2023-05-07T06:10:20;17.13;;;11.98;;
22543;SDS011;11438;52.044;8.716;2023-05-07T06:12:46;18.65;;;12.93;;
22543;SDS011;11438;52.044;8.716;2023-05-07T06:15:12;17.92;;;12.25;;
22543;SDS011;11438;52.044;8.716;2023-05-07T06:17:37;19.00;;;12.57;;
22543;SDS011;11438;52.044;8.716;2023-05-07T06:20:03;16.08;;;11.25;;
22543;SDS011;11438;52.044;8.716;2023-05-07T06:22:28;20.50;;;13.23;;
22543;SDS011;11438;52.044;8.716;2023-05-07T06:24:54;15.32;;;10.98;;
22543;SDS011;11438;52.044;8.716;2023-05-07T06:27:19;16.50;;;11.80;;
22543;SDS011;11438;52.044;8.716;2023-05-07T06:29:45;19.88;;;12.98;;
22543;SDS011;11438;52.044;8.716;2023-05-07T06:32:12;18.92;;;11.80;;
22543;SDS011;11438;52.044;8.716;2023-05-07T06:34:39;16.85;;;11.63;;
22543;SDS011;11438;52.044;8.716;2023-05-07T06:37:05;16.27;;;11.18;;
22543;SDS011;11438;52.044;8.716;2023-05-07T06:39:30;16.77;;;11.90;;
22543;SDS011;11438;52.044;8.716;2023-05-07T06:41:56;17.60;;;11.43;;
22543;SDS011;11438;52.044;8.716;2023-05-07T06:44:22;16.83;;;11.25;;
22543;SDS011;11438;52.044;8.716;2023-05-07T06:46:47;16.33;;;10.70;;
22543;SDS011;11438;52.044;8.716;2023-05-07T06:49:13;18.45;;;11.13;;
22543;SDS011;11438;52.044;8.716;2023-05-07T06:51:39;14.82;;;10.23;;
22543;SDS011;11438;52.044;8.716;2023-05-07T06:54:04;11.93;;;9.45;;
22543;SDS011;11438;52.044;8.716;2023-05-07T06:56:30;13.63;;;10.02;;
22543;SDS011;11438;52.044;8.716;2023-05-07T06:58:56;14.30;;;10.00;;
22543;SDS011;11438;52.044;8.716;2023-05-07T07:01:22;12.30;;;9.13;;
22543;SDS011;11438;52.044;8.716;2023-05-07T07:03:47;12.15;;;8.68;;
22543;SDS011;11438;52.044;8.716;2023-05-07T07:06:13;15.23;;;9.75;;
22543;SDS011;11438;52.044;8.716;2023-05-07T07:08:39;14.57;;;10.20;;
22543;SDS011;11438;52.044;8.716;2023-05-07T07:11:05;13.75;;;9.07;;
22543;SDS011;11438;52.044;8.716;2023-05-07T07:13:30;12.82;;;9.45;;
22543;SDS011;11438;52.044;8.716;2023-05-07T07:15:56;12.13;;;8.77;;
22543;SDS011;11438;52.044;8.716;2023-05-07T07:18:21;10.88;;;8.32;;
22543;SDS011;11438;52.044;8.716;2023-05-07T07:20:47;11.68;;;8.40;;
22543;SDS011;11438;52.044;8.716;2023-05-07T07:23:13;11.43;;;8.65;;
22543;SDS011;11438;52.044;8.716;2023-05-07T07:25:39;10.57;;;8.25;;
22543;SDS011;11438;52.044;8.716;2023-05-07T07:28:05;10.35;;;7.78;;
22543;SDS011;11438;52.044;8.716;2023-05-07T07:30:30;10.40;;;7.55;;
22543;SDS011;11438;52.044;8.716;2023-05-07T07:32:56;12.63;;;8.60;;
22543;SDS011;11438;52.044;8.716;2023-05-07T07:35:27;9.57;;;7.63;;
22543;SDS011;11438;52.044;8.716;2023-05-07T07:37:55;10.40;;;7.47;;
22543;SDS011;11438;52.044;8.716;2023-05-07T07:40:21;9.70;;;7.07;;
22543;SDS011;11438;52.044;8.716;2023-05-07T07:42:47;9.20;;;7.15;;
22543;SDS011;11438;52.044;8.716;2023-05-07T07:45:12;11.25;;;7.47;;
22543;SDS011;11438;52.044;8.716;2023-05-07T07:47:39;9.73;;;7.07;;
22543;SDS011;11438;52.044;8.716;2023-05-07T07:50:05;9.23;;;6.82;;
22543;SDS011;11438;52.044;8.716;2023-05-07T07:52:31;10.65;;;7.15;;
22543;SDS011;11438;52.044;8.716;2023-05-07T07:54:57;8.30;;;6.50;;
22543;SDS011;11438;52.044;8.716;2023-05-07T07:57:22;8.68;;;7.05;;
22543;SDS011;11438;52.044;8.716;2023-05-07T07:59:48;9.88;;;6.70;;
22543;SDS011;11438;52.044;8.716;2023-05-07T08:02:15;9.25;;;6.57;;
22543;SDS011;11438;52.044;8.716;2023-05-07T08:04:40;9.73;;;6.85;;
22543;SDS011;11438;52.044;8.716;2023-05-07T08:07:08;8.77;;;7.22;;
22543;SDS011;11438;52.044;8.716;2023-05-07T08:09:34;10.32;;;7.40;;
22543;SDS011;11438;52.044;8.716;2023-05-07T08:12:00;8.23;;;6.25;;
22543;SDS011;11438;52.044;8.716;2023-05-07T08:14:26;9.00;;;6.57;;
22543;SDS011;11438;52.044;8.716;2023-05-07T08:16:53;9.23;;;6.32;;
22543;SDS011;11438;52.044;8.716;2023-05-07T08:19:19;7.35;;;5.97;;
22543;SDS011;11438;52.044;8.716;2023-05-07T08:21:45;9.07;;;6.05;;
22543;SDS011;11438;52.044;8.716;2023-05-07T08:24:12;8.45;;;6.32;;
22543;SDS011;11438;52.044;8.716;2023-05-07T08:26:38;8.90;;;6.88;;
22543;SDS011;11438;52.044;8.716;2023-05-07T08:29:04;9.82;;;6.75;;
22543;SDS011;11438;52.044;8.716;2023-05-07T08:31:29;9.00;;;6.72;;
22543;SDS011;11438;52.044;8.716;2023-05-07T08:33:55;9.07;;;6.93;;
22543;SDS011;11438;52.044;8.716;2023-05-07T08:36:22;9.75;;;6.43;;
22543;SDS011;11438;52.044;8.716;2023-05-07T08:38:47;9.30;;;6.80;;
22543;SDS011;11438;52.044;8.716;2023-05-07T08:41:14;9.18;;;6.93;;
22543;SDS011;11438;52.044;8.716;2023-05-07T08:43:40;8.82;;;6.70;;
22543;SDS011;11438;52.044;8.716;2023-05-07T08:46:06;10.05;;;6.97;;
22543;SDS011;11438;52.044;8.716;2023-05-07T08:48:34;7.53;;;6.05;;
22543;SDS011;11438;52.044;8.716;2023-05-07T08:51:00;8.35;;;6.00;;
22543;SDS011;11438;52.044;8.716;2023-05-07T08:53:26;7.65;;;5.93;;
22543;SDS011;11438;52.044;8.716;2023-05-07T08:55:52;8.88;;;6.07;;
22543;SDS011;11438;52.044;8.716;2023-05-07T08:58:18;9.45;;;6.40;;
22543;SDS011;11438;52.044;8.716;2023-05-07T09:00:44;7.90;;;6.03;;
22543;SDS011;11438;52.044;8.716;2023-05-07T09:03:10;7.38;;;5.93;;
22543;SDS011;11438;52.044;8.716;2023-05-07T09:05:37;9.50;;;6.30;;
22543;SDS011;11438;52.044;8.716;2023-05-07T09:08:03;8.35;;;6.43;;
22543;SDS011;11438;52.044;8.716;2023-05-07T09:10:30;8.27;;;6.25;;
22543;SDS011;11438;52.044;8.716;2023-05-07T09:12:58;7.95;;;6.20;;
22543;SDS011;11438;52.044;8.716;2023-05-07T09:15:24;7.63;;;6.07;;
22543;SDS011;11438;52.044;8.716;2023-05-07T09:17:50;10.43;;;6.10;;
22543;SDS011;11438;52.044;8.716;2023-05-07T09:20:16;8.73;;;6.25;;
22543;SDS011;11438;52.044;8.716;2023-05-07T09:22:41;7.63;;;5.85;;
22543;SDS011;11438;52.044;8.716;2023-05-07T09:25:09;7.82;;;5.47;;
22543;SDS011;11438;52.044;8.716;2023-05-07T09:27:35;7.90;;;5.95;;
22543;SDS011;11438;52.044;8.716;2023-05-07T09:30:04;7.65;;;5.93;;
22543;SDS011;11438;52.044;8.716;2023-05-07T09:32:34;8.32;;;6.32;;
22543;SDS011;11438;52.044;8.716;2023-05-07T09:35:00;7.53;;;5.82;;
22543;SDS011;11438;52.044;8.716;2023-05-07T09:37:27;7.72;;;5.90;;
22543;SDS011;11438;52.044;8.716;2023-05-07T09:39:52;6.75;;;5.40;;
22543;SDS011;11438;52.044;8.716;2023-05-07T09:42:22;7.40;;;5.72;;
22543;SDS011;11438;52.044;8.716;2023-05-07T09:44:49;6.20;;;5.22;;
22543;SDS011;11438;52.044;8.716;2023-05-07T09:47:18;7.95;;;5.88;;
22543;SDS011;11438;52.044;8.716;2023-05-07T09:49:46;8.00;;;5.45;;
22543;SDS011;11438;52.044;8.716;2023-05-07T09:52:13;8.30;;;6.00;;
22543;SDS011;11438;52.044;8.716;2023-05-07T09:54:40;8.35;;;5.40;;
22543;SDS011;11438;52.044;8.716;2023-05-07T09:57:09;6.60;;;5.32;;
22543;SDS011;11438;52.044;8.716;2023-05-07T09:59:36;6.43;;;5.25;;
22543;SDS011;11438;52.044;8.716;2023-05-07T10:02:03;6.85;;;5.47;;
22543;SDS011;11438;52.044;8.716;2023-05-07T10:04:29;6.60;;;5.47;;
22543;SDS011;11438;52.044;8.716;2023-05-07T10:06:56;7.18;;;5.50;;
22543;SDS011;11438;52.044;8.716;2023-05-07T10:09:22;6.22;;;5.15;;
22543;SDS011;11438;52.044;8.716;2023-05-07T10:11:48;7.35;;;5.68;;
22543;SDS011;11438;52.044;8.716;2023-05-07T10:14:14;7.10;;;5.55;;
22543;SDS011;11438;52.044;8.716;2023-05-07T10:16:40;6.18;;;5.18;;
22543;SDS011;11438;52.044;8.716;2023-05-07T10:19:07;7.47;;;5.40;;
22543;SDS011;11438;52.044;8.716;2023-05-07T10:21:36;7.95;;;5.45;;
22543;SDS011;11438;52.044;8.716;2023-05-07T10:27:02;5.95;;;5.05;;
22543;SDS011;11438;52.044;8.716;2023-05-07T10:29:37;7.22;;;5.90;;
22543;SDS011;11438;52.044;8.716;2023-05-07T10:32:14;6.88;;;5.13;;
22543;SDS011;11438;52.044;8.716;2023-05-07T10:34:55;5.30;;;4.18;;
22543;SDS011;11438;52.044;8.716;2023-05-07T10:37:23;6.10;;;4.75;;
22543;SDS011;11438;52.044;8.716;2023-05-07T10:39:49;6.63;;;5.18;;
22543;SDS011;11438;52.044;8.716;2023-05-07T10:42:16;5.70;;;4.35;;
22543;SDS011;11438;52.044;8.716;2023-05-07T10:44:41;8.10;;;5.13;;
22543;SDS011;11438;52.044;8.716;2023-05-07T10:47:07;6.35;;;4.53;;
22543;SDS011;11438;52.044;8.716;2023-05-07T10:49:35;5.95;;;4.60;;
22543;SDS011;11438;52.044;8.716;2023-05-07T10:52:14;5.20;;;4.38;;
22543;SDS011;11438;52.044;8.716;2023-05-07T10:54:42;5.63;;;4.25;;
22543;SDS011;11438;52.044;8.716;2023-05-07T10:59:56;6.10;;;4.35;;
22543;SDS011;11438;52.044;8.716;2023-05-07T11:02:22;5.68;;;4.47;;
22543;SDS011;11438;52.044;8.716;2023-05-07T11:07:59;5.20;;;3.85;;
22543;SDS011;11438;52.044;8.716;2023-05-07T11:13:15;5.47;;;3.92;;
22543;SDS011;11438;52.044;8.716;2023-05-07T11:15:47;5.20;;;3.70;;
22543;SDS011;11438;52.044;8.716;2023-05-07T11:18:16;4.85;;;3.90;;
22543;SDS011;11438;52.044;8.716;2023-05-07T11:23:54;5.10;;;3.63;;
22543;SDS011;11438;52.044;8.716;2023-05-07T11:26:09;5.10;;;3.90;;
22543;SDS011;11438;52.044;8.716;2023-05-07T11:28:39;4.57;;;3.63;;
22543;SDS011;11438;52.044;8.716;2023-05-07T11:31:06;5.35;;;3.60;;
22543;SDS011;11438;52.044;8.716;2023-05-07T11:33:33;5.15;;;3.63;;
22543;SDS011;11438;52.044;8.716;2023-05-07T11:35:59;3.95;;;3.38;;
22543;SDS011;11438;52.044;8.716;2023-05-07T11:38:27;4.63;;;3.40;;
22543;SDS011;11438;52.044;8.716;2023-05-07T11:40:55;4.65;;;3.63;;
22543;SDS011;11438;52.044;8.716;2023-05-07T11:43:21;4.32;;;3.58;;
22543;SDS011;11438;52.044;8.716;2023-05-07T11:45:47;3.70;;;3.30;;
22543;SDS011;11438;52.044;8.716;2023-05-07T11:48:14;3.78;;;3.10;;
22543;SDS011;11438;52.044;8.716;2023-05-07T11:50:50;3.30;;;2.92;;
22543;SDS011;11438;52.044;8.716;2023-05-07T11:53:24;4.10;;;3.22;;
22543;SDS011;11438;52.044;8.716;2023-05-07T11:55:56;3.88;;;2.97;;
22543;SDS011;11438;52.044;8.716;2023-05-07T11:58:23;4.10;;;3.10;;
22543;SDS011;11438;52.044;8.716;2023-05-07T12:00:50;5.82;;;3.15;;
22543;SDS011;11438;52.044;8.716;2023-05-07T12:03:17;4.25;;;2.90;;
22543;SDS011;11438;52.044;8.716;2023-05-07T12:05:43;3.92;;;2.90;;
22543;SDS011;11438;52.044;8.716;2023-05-07T12:08:16;3.83;;;2.80;;
22543;SDS011;11438;52.044;8.716;2023-05-07T12:10:46;3.90;;;2.78;;
22543;SDS011;11438;52.044;8.716;2023-05-07T12:13:16;3.65;;;2.42;;
22543;SDS011;11438;52.044;8.716;2023-05-07T12:15:46;4.47;;;3.08;;
22543;SDS011;11438;52.044;8.716;2023-05-07T12:18:12;4.93;;;3.10;;
22543;SDS011;11438;52.044;8.716;2023-05-07T12:20:38;3.15;;;2.83;;
22543;SDS011;11438;52.044;8.716;2023-05-07T12:23:04;3.28;;;2.70;;
22543;SDS011;11438;52.044;8.716;2023-05-07T12:25:31;6.15;;;2.90;;
22543;SDS011;11438;52.044;8.716;2023-05-07T12:27:57;3.20;;;2.55;;
22543;SDS011;11438;52.044;8.716;2023-05-07T12:30:25;4.00;;;2.80;;
22543;SDS011;11438;52.044;8.716;2023-05-07T12:32:54;4.03;;;2.85;;
22543;SDS011;11438;52.044;8.716;2023-05-07T12:35:54;3.25;;;2.83;;
22543;SDS011;11438;52.044;8.716;2023-05-07T12:38:13;3.30;;;2.92;;
22543;SDS011;11438;52.044;8.716;2023-05-07T12:40:40;3.55;;;2.67;;
22543;SDS011;11438;52.044;8.716;2023-05-07T12:43:25;4.00;;;3.10;;
22543;SDS011;11438;52.044;8.716;2023-05-07T12:45:56;3.35;;;2.85;;
22543;SDS011;11438;52.044;8.716;2023-05-07T12:48:25;4.07;;;3.20;;
22543;SDS011;11438;52.044;8.716;2023-05-07T12:50:55;3.80;;;3.05;;
22543;SDS011;11438;52.044;8.716;2023-05-07T12:53:22;3.80;;;3.00;;
22543;SDS011;11438;52.044;8.716;2023-05-07T12:55:53;3.58;;;2.97;;
22543;SDS011;11438;52.044;8.716;2023-05-07T12:58:25;4.60;;;3.00;;
22543;SDS011;11438;52.044;8.716;2023-05-07T13:00:51;3.92;;;3.00;;
22543;SDS011;11438;52.044;8.716;2023-05-07T13:03:24;4.25;;;2.80;;
22543;SDS011;11438;52.044;8.716;2023-05-07T13:05:51;3.72;;;3.33;;
22543;SDS011;11438;52.044;8.716;2023-05-07T13:08:31;4.13;;;3.20;;
22543;SDS011;11438;52.044;8.716;2023-05-07T13:11:01;3.28;;;2.97;;
22543;SDS011;11438;52.044;8.716;2023-05-07T13:13:29;5.28;;;3.00;;
22543;SDS011;11438;52.044;8.716;2023-05-07T13:15:58;5.18;;;3.22;;
22543;SDS011;11438;52.044;8.716;2023-05-07T13:18:25;3.83;;;3.38;;
22543;SDS011;11438;52.044;8.716;2023-05-07T13:20:51;4.88;;;2.88;;
22543;SDS011;11438;52.044;8.716;2023-05-07T13:23:17;4.28;;;3.22;;
22543;SDS011;11438;52.044;8.716;2023-05-07T13:25:43;4.88;;;3.15;;
22543;SDS011;11438;52.044;8.716;2023-05-07T13:28:09;4.18;;;3.20;;
22543;SDS011;11438;52.044;8.716;2023-05-07T13:30:34;4.20;;;3.42;;
22543;SDS011;11438;52.044;8.716;2023-05-07T13:33:00;4.93;;;3.88;;
22543;SDS011;11438;52.044;8.716;2023-05-07T13:35:25;4.55;;;3.45;;
22543;SDS011;11438;52.044;8.716;2023-05-07T13:37:51;4.32;;;3.28;;
22543;SDS011;11438;52.044;8.716;2023-05-07T13:40:17;5.47;;;4.28;;
22543;SDS011;11438;52.044;8.716;2023-05-07T13:42:44;3.83;;;3.33;;
22543;SDS011;11438;52.044;8.716;2023-05-07T13:45:09;5.13;;;3.67;;
22543;SDS011;11438;52.044;8.716;2023-05-07T13:47:35;6.15;;;3.78;;
22543;SDS011;11438;52.044;8.716;2023-05-07T13:50:01;4.72;;;3.58;;
22543;SDS011;11438;52.044;8.716;2023-05-07T13:52:26;5.65;;;4.07;;
22543;SDS011;11438;52.044;8.716;2023-05-07T13:54:52;5.35;;;4.30;;
22543;SDS011;11438;52.044;8.716;2023-05-07T13:57:17;5.05;;;3.90;;
22543;SDS011;11438;52.044;8.716;2023-05-07T13:59:43;5.40;;;3.83;;
22543;SDS011;11438;52.044;8.716;2023-05-07T14:02:09;5.45;;;4.03;;
22543;SDS011;11438;52.044;8.716;2023-05-07T14:04:34;5.43;;;3.72;;
22543;SDS011;11438;52.044;8.716;2023-05-07T14:07:00;4.65;;;3.58;;
22543;SDS011;11438;52.044;8.716;2023-05-07T14:09:26;5.13;;;4.13;;
22543;SDS011;11438;52.044;8.716;2023-05-07T14:11:51;4.28;;;3.88;;
22543;SDS011;11438;52.044;8.716;2023-05-07T14:14:17;4.75;;;3.92;;
22543;SDS011;11438;52.044;8.716;2023-05-07T14:16:43;5.53;;;4.20;;
22543;SDS011;11438;52.044;8.716;2023-05-07T14:19:09;4.68;;;3.78;;
22543;SDS011;11438;52.044;8.716;2023-05-07T14:21:35;4.72;;;3.70;;
22543;SDS011;11438;52.044;8.716;2023-05-07T14:24:01;5.90;;;3.83;;
22543;SDS011;11438;52.044;8.716;2023-05-07T14:26:26;7.35;;;4.07;;
22543;SDS011;11438;52.044;8.716;2023-05-07T14:28:52;7.03;;;4.00;;
22543;SDS011;11438;52.044;8.716;2023-05-07T14:31:19;6.68;;;4.30;;
22543;SDS011;11438;52.044;8.716;2023-05-07T14:33:45;5.22;;;3.75;;
22543;SDS011;11438;52.044;8.716;2023-05-07T14:36:11;5.63;;;4.15;;
22543;SDS011;11438;52.044;8.716;2023-05-07T14:38:36;5.60;;;3.67;;
22543;SDS011;11438;52.044;8.716;2023-05-07T14:41:02;5.85;;;3.85;;
22543;SDS011;11438;52.044;8.716;2023-05-07T14:43:27;5.78;;;4.45;;
22543;SDS011;11438;52.044;8.716;2023-05-07T14:45:53;4.10;;;3.70;;